createdAt,value
2023-04-08T00:01:37.187Z,4.20
2023-04-08T00:04:04.037Z,4.20
2023-04-08T00:06:31.551Z,4.20
2023-04-08T00:08:58.138Z,4.20
2023-04-08T00:11:24.780Z,4.30
2023-04-08T00:13:51.404Z,4.30
2023-04-08T00:16:18.019Z,4.40
2023-04-08T00:18:44.630Z,4.50
2023-04-08T00:21:11.268Z,4.60
2023-04-08T00:23:37.846Z,4.60
2023-04-08T00:26:04.447Z,4.70
2023-04-08T00:28:31.136Z,4.80
2023-04-08T00:30:58.102Z,4.90
2023-04-08T00:33:25.670Z,5.10
2023-04-08T00:35:52.324Z,5.10
2023-04-08T00:38:18.899Z,5.20
2023-04-08T00:40:45.490Z,5.20
2023-04-08T00:43:12.267Z,5.30
2023-04-08T00:45:38.914Z,5.40
2023-04-08T00:48:05.965Z,5.40
2023-04-08T00:50:32.910Z,5.50
2023-04-08T00:52:59.570Z,5.60
2023-04-08T00:55:26.183Z,5.60
2023-04-08T00:57:53.187Z,5.70
2023-04-08T01:00:20.204Z,5.70
2023-04-08T01:02:53.319Z,5.80
2023-04-08T01:05:30.775Z,5.80
2023-04-08T01:08:02.788Z,5.90
2023-04-08T01:10:31.303Z,5.90
2023-04-08T01:13:01.572Z,5.90
2023-04-08T01:15:30.584Z,5.90
2023-04-08T01:17:58.821Z,5.90
2023-04-08T01:20:27.204Z,5.90
2023-04-08T01:23:22.970Z,6.00
2023-04-08T01:25:54.324Z,6.00
2023-04-08T01:28:24.062Z,6.00
2023-04-08T01:30:52.122Z,6.00
2023-04-08T01:33:19.638Z,6.00
2023-04-08T01:35:46.684Z,6.00
2023-04-08T01:38:17.964Z,6.10
2023-04-08T01:40:46.023Z,6.10
2023-04-08T01:43:16.278Z,6.00
2023-04-08T01:45:45.239Z,6.10
2023-04-08T01:48:14.232Z,6.10
2023-04-08T01:50:43.133Z,6.10
2023-04-08T01:53:11.085Z,6.10
2023-04-08T01:55:40.630Z,6.20
2023-04-08T01:58:09.535Z,6.20
2023-04-08T02:00:38.818Z,6.10
2023-04-08T02:03:07.233Z,6.10
2023-04-08T02:05:34.278Z,6.10
2023-04-08T02:08:00.826Z,6.10
2023-04-08T02:10:27.546Z,6.10
2023-04-08T02:12:54.758Z,6.20
2023-04-08T02:15:21.841Z,6.20
2023-04-08T02:18:04.315Z,6.20
2023-04-08T02:20:57.663Z,6.10
2023-04-08T02:23:27.432Z,6.10
2023-04-08T02:25:56.617Z,6.10
2023-04-08T02:28:25.602Z,6.10
2023-04-08T02:30:53.235Z,6.10
2023-04-08T02:33:22.176Z,6.10
2023-04-08T02:35:50.937Z,6.20
2023-04-08T02:38:17.612Z,6.10
2023-04-08T02:40:44.194Z,6.20
2023-04-08T02:43:10.757Z,6.10
2023-04-08T02:45:44.794Z,6.10
2023-04-08T02:48:11.917Z,6.10
2023-04-08T02:50:39.847Z,6.20
2023-04-08T02:53:06.520Z,6.20
2023-04-08T02:55:33.125Z,6.20
2023-04-08T02:57:59.735Z,6.20
2023-04-08T03:00:26.330Z,6.20
2023-04-08T03:02:53.172Z,6.20
2023-04-08T03:05:19.867Z,6.20
2023-04-08T03:07:46.447Z,6.30
2023-04-08T03:10:13.218Z,6.20
2023-04-08T03:12:39.862Z,6.20
2023-04-08T03:15:07.294Z,6.20
2023-04-08T03:17:34.583Z,6.20
2023-04-08T03:20:04.580Z,6.20
2023-04-08T03:22:31.228Z,6.20
2023-04-08T03:24:58.011Z,6.20
2023-04-08T03:27:24.850Z,6.20
2023-04-08T03:29:52.952Z,6.20
2023-04-08T03:32:19.763Z,6.20
2023-04-08T03:34:46.330Z,6.20
2023-04-08T03:37:12.903Z,6.20
2023-04-08T03:39:39.490Z,6.20
2023-04-08T03:42:06.063Z,6.20
2023-04-08T03:44:32.650Z,6.20
2023-04-08T03:46:59.284Z,6.20
2023-04-08T03:49:25.922Z,6.20
2023-04-08T03:51:52.500Z,6.20
2023-04-08T03:54:19.105Z,6.20
2023-04-08T03:56:45.687Z,6.20
2023-04-08T03:59:12.341Z,6.20
2023-04-08T04:01:40.720Z,6.10
2023-04-08T04:04:08.796Z,6.20
2023-04-08T04:06:35.655Z,6.20
2023-04-08T04:09:02.260Z,6.20
2023-04-08T04:11:28.819Z,6.20
2023-04-08T04:13:55.657Z,6.20
2023-04-08T04:16:22.621Z,6.20
2023-04-08T04:18:49.629Z,6.20
2023-04-08T04:21:16.395Z,6.20
2023-04-08T04:23:43.017Z,6.30
2023-04-08T04:26:10.324Z,6.30
2023-04-08T04:28:37.644Z,6.20
2023-04-08T04:31:04.670Z,6.30
2023-04-08T04:33:31.618Z,6.30
2023-04-08T04:35:58.235Z,6.30
2023-04-08T04:38:24.922Z,6.20
2023-04-08T04:40:51.524Z,6.30
2023-04-08T04:43:18.063Z,6.30
2023-04-08T04:45:45.160Z,6.20
2023-04-08T04:48:11.868Z,6.20
2023-04-08T04:50:38.420Z,6.20
2023-04-08T04:53:05.428Z,6.20
2023-04-08T04:55:32.362Z,6.20
2023-04-08T04:57:58.945Z,6.20
2023-04-08T05:00:25.614Z,6.20
2023-04-08T05:02:52.307Z,6.20
2023-04-08T05:05:19.178Z,6.20
2023-04-08T05:07:45.846Z,6.20
2023-04-08T05:10:12.410Z,6.30
2023-04-08T05:12:38.978Z,6.20
2023-04-08T05:15:06.541Z,6.30
2023-04-08T05:17:33.254Z,6.20
2023-04-08T05:19:59.822Z,6.20
2023-04-08T05:22:26.403Z,6.30
2023-04-08T05:24:52.954Z,6.30
2023-04-08T05:27:21.505Z,6.30
2023-04-08T05:29:48.128Z,6.30
2023-04-08T05:32:16.831Z,6.30
2023-04-08T05:34:43.963Z,6.30
2023-04-08T05:37:10.858Z,6.40
2023-04-08T05:39:37.843Z,6.30
2023-04-08T05:42:04.698Z,6.40
2023-04-08T05:44:31.485Z,6.40
2023-04-08T05:46:58.245Z,6.50
2023-04-08T05:49:24.893Z,6.50
2023-04-08T05:51:51.531Z,6.50
2023-04-08T05:54:18.068Z,6.60
2023-04-08T05:56:46.305Z,6.60
2023-04-08T05:59:12.925Z,6.70
2023-04-08T06:01:39.686Z,6.70
2023-04-08T06:04:06.609Z,6.80
2023-04-08T06:06:33.526Z,6.80
2023-04-08T06:09:00.263Z,6.90
2023-04-08T06:11:26.835Z,6.90
2023-04-08T06:13:53.380Z,7.00
2023-04-08T06:16:21.256Z,7.10
2023-04-08T06:18:48.461Z,7.20
2023-04-08T06:21:15.652Z,7.30
2023-04-08T06:23:42.230Z,7.30
2023-04-08T06:26:08.782Z,7.50
2023-04-08T06:28:35.365Z,7.60
2023-04-08T06:31:02.235Z,7.70
2023-04-08T06:33:28.828Z,7.80
2023-04-08T06:36:03.824Z,7.80
2023-04-08T06:38:32.111Z,7.80
2023-04-08T06:41:06.408Z,7.90
2023-04-08T06:43:33.617Z,7.90
2023-04-08T06:46:00.376Z,8.00
2023-04-08T06:48:32.871Z,8.00
2023-04-08T06:51:01.203Z,8.10
2023-04-08T06:53:33.055Z,8.10
2023-04-08T06:56:00.336Z,8.10
2023-04-08T06:58:27.426Z,8.10
2023-04-08T07:00:57.902Z,8.10
2023-04-08T07:03:24.608Z,8.10
2023-04-08T07:05:51.231Z,8.10
2023-04-08T07:08:17.805Z,8.10
2023-04-08T07:10:44.856Z,8.20
2023-04-08T07:13:11.615Z,8.20
2023-04-08T07:15:38.182Z,8.20
2023-04-08T07:18:05.856Z,8.30
2023-04-08T07:20:32.834Z,8.40
2023-04-08T07:22:59.431Z,8.40
2023-04-08T07:25:26.100Z,8.50
2023-04-08T07:27:52.834Z,8.50
2023-04-08T07:30:19.705Z,8.50
2023-04-08T07:32:46.343Z,8.60
2023-04-08T07:35:13.092Z,8.60
2023-04-08T07:37:39.629Z,8.60
2023-04-08T07:40:06.950Z,8.60
2023-04-08T07:42:33.672Z,8.60
2023-04-08T07:45:00.210Z,8.60
2023-04-08T07:47:27.169Z,8.60
2023-04-08T07:49:54.489Z,8.50
2023-04-08T07:52:21.329Z,8.40
2023-04-08T07:54:47.941Z,8.40
2023-04-08T07:57:14.775Z,8.40
2023-04-08T07:59:41.538Z,8.40
2023-04-08T08:02:08.130Z,8.40
2023-04-08T08:04:35.066Z,8.40
2023-04-08T08:07:01.779Z,8.40
2023-04-08T08:09:29.650Z,8.50
2023-04-08T08:11:57.213Z,8.50
2023-04-08T08:14:25.179Z,8.70
2023-04-08T08:16:52.557Z,8.70
2023-04-08T08:19:19.344Z,8.80
2023-04-08T08:21:46.154Z,8.80
2023-04-08T08:24:12.923Z,8.90
2023-04-08T08:26:39.706Z,9.00
2023-04-08T08:29:08.912Z,9.00
2023-04-08T08:31:36.004Z,9.10
2023-04-08T08:34:02.838Z,9.10
2023-04-08T08:36:29.701Z,9.10
2023-04-08T08:38:56.322Z,9.10
2023-04-08T08:41:22.958Z,9.00
2023-04-08T08:43:50.001Z,9.00
2023-04-08T08:46:19.268Z,9.00
2023-04-08T08:48:46.395Z,9.00
2023-04-08T08:51:13.659Z,9.20
2023-04-08T08:53:49.685Z,9.40
2023-04-08T08:56:18.239Z,9.50
2023-04-08T08:58:45.687Z,9.60
2023-04-08T09:01:41.377Z,9.70
2023-04-08T09:04:22.766Z,9.80
2023-04-08T09:07:09.564Z,9.80
2023-04-08T09:09:50.155Z,9.90
2023-04-08T09:12:18.147Z,9.90
2023-04-08T09:14:45.297Z,10.00
2023-04-08T09:17:12.205Z,10.10
2023-04-08T09:19:38.807Z,10.20
2023-04-08T09:22:07.605Z,10.30
2023-04-08T09:24:34.864Z,10.40
2023-04-08T09:27:01.765Z,10.30
2023-04-08T09:29:30.498Z,10.30
2023-04-08T09:32:01.253Z,10.30
2023-04-08T09:34:29.657Z,10.30
2023-04-08T09:36:56.551Z,10.30
2023-04-08T09:39:23.644Z,10.30
2023-04-08T09:41:52.401Z,10.40
2023-04-08T09:44:21.197Z,10.50
2023-04-08T09:46:51.325Z,10.50
2023-04-08T09:49:38.194Z,10.60
2023-04-08T09:52:15.522Z,10.70
2023-04-08T09:55:06.422Z,10.90
2023-04-08T09:57:55.668Z,11.00
2023-04-08T10:00:28.725Z,11.20
2023-04-08T10:02:57.344Z,11.20
2023-04-08T10:05:25.658Z,11.30
2023-04-08T10:07:52.556Z,11.40
2023-04-08T10:10:20.686Z,11.50
2023-04-08T10:12:48.382Z,11.60
2023-04-08T10:15:27.094Z,11.50
2023-04-08T10:17:55.489Z,11.50
2023-04-08T10:20:34.407Z,11.70
2023-04-08T10:23:01.964Z,12.10
2023-04-08T10:25:53.691Z,12.30
2023-04-08T10:28:20.264Z,12.60
2023-04-08T10:30:47.648Z,12.70
2023-04-08T10:33:21.197Z,12.60
2023-04-08T10:36:12.249Z,12.10
2023-04-08T10:38:42.544Z,12.00
2023-04-08T10:41:14.080Z,12.20
2023-04-08T10:43:40.923Z,12.40
2023-04-08T10:46:10.689Z,12.60
2023-04-08T10:48:37.296Z,12.30
2023-04-08T10:51:05.096Z,12.00
2023-04-08T10:53:33.688Z,12.00
2023-04-08T10:56:07.629Z,12.20
2023-04-08T10:58:36.186Z,12.00
2023-04-08T11:01:10.048Z,12.00
2023-04-08T11:03:37.214Z,12.20
2023-04-08T11:06:04.609Z,12.30
2023-04-08T11:08:33.051Z,12.50
2023-04-08T11:11:03.994Z,12.70
2023-04-08T11:13:31.547Z,12.80
2023-04-08T11:15:59.583Z,12.90
2023-04-08T11:18:27.175Z,13.00
2023-04-08T11:20:54.231Z,13.10
2023-04-08T11:23:22.750Z,13.20
2023-04-08T11:25:49.602Z,13.20
2023-04-08T11:28:16.834Z,13.30
2023-04-08T11:30:43.802Z,13.30
2023-04-08T11:33:10.875Z,13.20
2023-04-08T11:35:41.893Z,12.90
2023-04-08T11:38:09.606Z,12.80
2023-04-08T11:40:36.559Z,12.50
2023-04-08T11:43:16.913Z,12.60
2023-04-08T11:45:43.571Z,12.80
2023-04-08T11:48:15.115Z,13.00
2023-04-08T11:50:42.566Z,13.20
2023-04-08T11:53:24.994Z,13.10
2023-04-08T11:55:51.830Z,13.00
2023-04-08T11:58:18.481Z,13.00
2023-04-08T12:00:45.687Z,13.00
2023-04-08T12:03:13.512Z,12.80
2023-04-08T12:05:40.637Z,12.60
2023-04-08T12:08:07.260Z,12.40
2023-04-08T12:10:34.015Z,12.30
2023-04-08T12:13:00.608Z,12.50
2023-04-08T12:15:27.318Z,12.60
2023-04-08T12:17:54.006Z,12.70
2023-04-08T12:20:20.783Z,13.10
2023-04-08T12:22:47.346Z,13.10
2023-04-08T12:25:13.936Z,13.10
2023-04-08T12:27:40.508Z,13.20
2023-04-08T12:30:07.780Z,13.20
2023-04-08T12:32:34.642Z,13.40
2023-04-08T12:35:01.247Z,13.80
2023-04-08T12:37:27.944Z,14.20
2023-04-08T12:39:54.605Z,14.60
2023-04-08T12:42:21.520Z,14.70
2023-04-08T12:44:48.064Z,14.90
2023-04-08T12:47:14.753Z,15.10
2023-04-08T12:52:11.128Z,15.50
2023-04-08T12:54:37.741Z,15.50
2023-04-08T12:57:04.782Z,15.40
2023-04-08T12:59:33.333Z,15.30
2023-04-08T13:01:59.878Z,15.30
2023-04-08T13:04:26.527Z,15.30
2023-04-08T13:06:53.180Z,15.30
2023-04-08T13:09:19.743Z,15.40
2023-04-08T13:11:46.292Z,15.40
2023-04-08T13:14:13.637Z,15.40
2023-04-08T13:16:40.682Z,15.50
2023-04-08T13:19:07.526Z,15.60
2023-04-08T13:21:34.158Z,15.60
2023-04-08T13:24:00.977Z,15.70
2023-04-08T13:26:27.561Z,15.70
2023-04-08T13:28:57.617Z,15.60
2023-04-08T13:31:27.625Z,15.50
2023-04-08T13:33:57.596Z,15.50
2023-04-08T13:36:24.937Z,15.50
2023-04-08T13:38:51.865Z,15.40
2023-04-08T13:41:20.980Z,15.30
2023-04-08T13:43:47.522Z,15.30
2023-04-08T13:46:14.228Z,15.40
2023-04-08T13:48:41.179Z,15.30
2023-04-08T13:51:08.328Z,15.20
2023-04-08T13:53:34.866Z,15.10
2023-04-08T13:56:01.410Z,15.00
2023-04-08T13:58:27.988Z,15.00
2023-04-08T14:00:54.677Z,14.90
2023-04-08T14:03:21.307Z,14.90
2023-04-08T14:05:47.936Z,14.70
2023-04-08T14:08:14.520Z,14.50
2023-04-08T14:10:42.083Z,14.30
2023-04-08T14:13:09.133Z,14.10
2023-04-08T14:15:35.965Z,14.00
2023-04-08T14:18:02.619Z,13.90
2023-04-08T14:20:29.955Z,13.90
2023-04-08T14:22:56.756Z,13.90
2023-04-08T14:25:23.827Z,13.80
2023-04-08T14:27:58.103Z,13.80
2023-04-08T14:30:26.528Z,13.70
2023-04-08T14:32:53.363Z,13.80
2023-04-08T14:35:20.144Z,13.70
2023-04-08T14:37:46.878Z,13.60
2023-04-08T14:40:13.503Z,13.60
2023-04-08T14:42:40.096Z,13.60
2023-04-08T14:45:07.229Z,13.60
2023-04-08T14:47:33.856Z,13.40
2023-04-08T14:50:00.463Z,13.20
2023-04-08T14:52:27.238Z,13.00
2023-04-08T14:54:53.906Z,12.80
2023-04-08T14:57:20.739Z,12.60
2023-04-08T14:59:47.326Z,12.70
2023-04-08T15:02:13.984Z,12.70
2023-04-08T15:04:40.822Z,12.70
2023-04-08T15:07:07.504Z,12.70
2023-04-08T15:09:34.117Z,12.60
2023-04-08T15:12:01.189Z,12.70
2023-04-08T15:14:27.938Z,12.80
2023-04-08T15:16:54.761Z,12.80
2023-04-08T15:19:21.369Z,12.60
2023-04-08T15:21:48.010Z,12.50
2023-04-08T15:24:14.797Z,12.30
2023-04-08T15:26:41.355Z,12.30
2023-04-08T15:29:08.015Z,12.20
2023-04-08T15:31:35.187Z,12.00
2023-04-08T15:34:02.693Z,12.00
2023-04-08T15:36:33.335Z,11.90
2023-04-08T15:38:59.897Z,12.00
2023-04-08T15:41:27.063Z,11.90
2023-04-08T15:43:54.161Z,11.80
2023-04-08T15:46:21.172Z,11.70
2023-04-08T15:48:48.408Z,11.60
2023-04-08T15:51:15.296Z,11.60
2023-04-08T15:53:42.406Z,11.60
2023-04-08T15:56:16.597Z,11.80
2023-04-08T15:58:44.417Z,12.00
2023-04-08T16:01:11.287Z,12.10
2023-04-08T16:03:38.515Z,12.00
2023-04-08T16:06:06.097Z,11.80
2023-04-08T16:08:34.374Z,11.60
2023-04-08T16:11:02.797Z,11.50
2023-04-08T16:13:34.110Z,11.30
2023-04-08T16:16:04.211Z,11.20
2023-04-08T16:18:30.928Z,11.20
2023-04-08T16:20:57.859Z,11.20
2023-04-08T16:23:24.627Z,11.30
2023-04-08T16:25:51.959Z,11.30
2023-04-08T16:28:18.712Z,11.30
2023-04-08T16:30:47.496Z,11.20
2023-04-08T16:33:14.198Z,11.30
2023-04-08T16:35:40.841Z,11.20
2023-04-08T16:38:07.409Z,11.10
2023-04-08T16:40:34.951Z,11.20
2023-04-08T16:43:02.090Z,11.20
2023-04-08T16:45:30.001Z,11.30
2023-04-08T16:47:57.440Z,11.20
2023-04-08T16:50:24.295Z,11.10
2023-04-08T16:52:50.866Z,11.00
2023-04-08T16:55:17.924Z,10.80
2023-04-08T16:57:44.677Z,10.80
2023-04-08T17:00:11.798Z,10.70
2023-04-08T17:02:38.521Z,10.70
2023-04-08T17:05:05.575Z,10.70
2023-04-08T17:07:32.348Z,10.70
2023-04-08T17:09:59.265Z,10.60
2023-04-08T17:12:26.268Z,10.60
2023-04-08T17:14:52.899Z,10.40
2023-04-08T17:17:19.442Z,10.40
2023-04-08T17:19:46.238Z,10.40
2023-04-08T17:38:10.603Z,10.20
2023-04-08T17:40:37.550Z,10.00
2023-04-08T17:43:04.112Z,10.00
2023-04-08T17:45:31.028Z,9.90
2023-04-08T17:47:58.571Z,9.90
2023-04-08T17:50:25.458Z,9.90
2023-04-08T17:52:52.025Z,9.80
2023-04-08T17:55:18.572Z,9.80
2023-04-08T17:57:45.164Z,9.70
2023-04-08T18:00:12.054Z,9.60
2023-04-08T18:02:38.924Z,9.60
2023-04-08T18:05:06.479Z,9.60
2023-04-08T18:07:33.445Z,9.50
2023-04-08T18:10:00.043Z,9.50
2023-04-08T18:12:28.602Z,9.50
2023-04-08T18:14:55.167Z,9.40
2023-04-08T18:17:21.717Z,9.40
2023-04-08T18:19:48.284Z,9.40
2023-04-08T18:22:14.874Z,9.40
2023-04-08T18:24:41.564Z,9.30
2023-04-08T18:27:09.524Z,9.30
2023-04-08T18:29:36.566Z,9.30
2023-04-08T18:32:03.285Z,9.30
2023-04-08T18:34:31.810Z,9.30
2023-04-08T18:36:59.873Z,9.30
2023-04-08T18:39:27.191Z,9.30
2023-04-08T18:41:53.741Z,9.30
2023-04-08T18:44:20.486Z,9.30
2023-04-08T18:46:47.042Z,9.30
2023-04-08T18:49:13.875Z,9.30
2023-04-08T18:51:42.147Z,9.20
2023-04-08T18:54:12.826Z,9.20
2023-04-08T18:56:39.695Z,9.20
2023-04-08T18:59:06.480Z,9.10
2023-04-08T19:01:34.325Z,9.10
2023-04-08T19:04:01.519Z,9.10
2023-04-08T19:06:28.502Z,9.10
2023-04-08T19:08:55.772Z,9.10
2023-04-08T19:11:26.384Z,9.10
2023-04-08T19:13:53.024Z,9.10
2023-04-08T19:16:19.672Z,9.10
2023-04-08T19:18:46.320Z,9.10
2023-04-08T19:21:12.901Z,9.10
2023-04-08T19:23:39.505Z,9.10
2023-04-08T19:26:06.490Z,9.00
2023-04-08T19:28:33.442Z,9.00
2023-04-08T19:31:01.327Z,9.00
2023-04-08T19:33:28.100Z,9.00
2023-04-08T19:35:55.726Z,9.00
2023-04-08T19:38:23.131Z,9.00
2023-04-08T19:40:50.044Z,9.00
2023-04-08T19:43:17.602Z,9.00
2023-04-08T19:45:44.644Z,9.00
2023-04-08T19:48:11.186Z,9.00
2023-04-08T19:50:38.883Z,9.00
2023-04-08T19:53:05.628Z,9.00
2023-04-08T19:55:33.204Z,9.00
2023-04-08T19:57:59.741Z,8.90
2023-04-08T20:00:27.965Z,8.90
2023-04-08T20:02:55.109Z,8.90
2023-04-08T20:05:22.060Z,8.90
2023-04-08T20:07:48.691Z,8.80
2023-04-08T20:10:15.474Z,8.80
2023-04-08T20:12:42.218Z,8.80
2023-04-08T20:15:22.723Z,8.80
2023-04-08T20:17:50.594Z,8.80
2023-04-08T20:20:17.562Z,8.80
2023-04-08T20:22:46.222Z,8.70
2023-04-08T20:25:12.828Z,8.70
2023-04-08T20:27:39.419Z,8.70
2023-04-08T20:30:07.005Z,8.70
2023-04-08T20:32:34.597Z,8.70
2023-04-08T20:35:01.311Z,8.80
2023-04-08T20:37:28.596Z,8.70
2023-04-08T20:39:55.147Z,8.70
2023-04-08T20:42:21.713Z,8.70
2023-04-08T20:44:48.275Z,8.70
2023-04-08T20:47:15.475Z,8.70
2023-04-08T20:49:42.678Z,8.70
2023-04-08T20:52:09.278Z,8.70
2023-04-08T20:54:36.078Z,8.70
2023-04-08T20:57:02.679Z,8.70
2023-04-08T20:59:29.224Z,8.70
2023-04-08T21:01:55.826Z,8.70
2023-04-08T21:04:24.332Z,8.70
2023-04-08T21:06:51.379Z,8.70
2023-04-08T21:09:17.985Z,8.70
2023-04-08T21:11:44.749Z,8.70
2023-04-08T21:14:11.319Z,8.70
2023-04-08T21:16:37.957Z,8.70
2023-04-08T21:19:04.603Z,8.70
2023-04-08T21:21:31.580Z,8.70
2023-04-08T21:24:00.362Z,8.60
2023-04-08T21:26:27.574Z,8.60
2023-04-08T21:28:54.263Z,8.60
2023-04-08T21:31:20.980Z,8.60
2023-04-08T21:33:47.620Z,8.50
2023-04-08T21:36:14.191Z,8.50
2023-04-08T21:38:41.976Z,8.50
2023-04-08T21:41:08.586Z,8.50
2023-04-08T21:43:35.213Z,8.50
2023-04-08T21:46:01.825Z,8.50
2023-04-08T21:48:28.577Z,8.50
2023-04-08T21:50:55.203Z,8.50
2023-04-08T21:53:22.302Z,8.50
2023-04-08T21:55:48.906Z,8.50
2023-04-08T21:58:16.499Z,8.50
2023-04-08T22:00:43.156Z,8.50
2023-04-08T22:03:09.831Z,8.50
2023-04-08T22:05:36.736Z,8.50
2023-04-08T22:08:03.453Z,8.50
2023-04-08T22:10:30.092Z,8.40
2023-04-08T22:12:56.662Z,8.50
2023-04-08T22:15:23.320Z,8.50
2023-04-08T22:17:49.896Z,8.50
2023-04-08T22:20:16.526Z,8.50
2023-04-08T22:22:43.522Z,8.50
2023-04-08T22:25:10.507Z,8.40
2023-04-08T22:27:37.327Z,8.50
2023-04-08T22:30:04.281Z,8.50
2023-04-08T22:32:30.890Z,8.50
2023-04-08T22:34:57.473Z,8.50
2023-04-08T22:37:24.086Z,8.50
2023-04-08T22:39:50.757Z,8.50
2023-04-08T22:42:17.368Z,8.50
2023-04-08T22:44:44.002Z,8.50
2023-04-08T22:47:10.814Z,8.50
2023-04-08T22:49:37.355Z,8.50
2023-04-08T22:52:03.944Z,8.50
2023-04-08T22:54:30.667Z,8.50
2023-04-08T22:56:57.769Z,8.50
2023-04-08T22:59:24.346Z,8.50
2023-04-08T23:01:51.021Z,8.50
2023-04-08T23:04:17.685Z,8.50
2023-04-08T23:06:44.454Z,8.50
2023-04-08T23:09:11.113Z,8.50
2023-04-08T23:11:37.743Z,8.40
2023-04-08T23:14:04.306Z,8.40
2023-04-08T23:16:31.471Z,8.40
2023-04-08T23:18:58.092Z,8.40
2023-04-08T23:21:24.622Z,8.40
2023-04-08T23:23:51.166Z,8.40
2023-04-08T23:26:21.159Z,8.40
2023-04-08T23:28:47.986Z,8.40
2023-04-08T23:31:14.586Z,8.40
2023-04-08T23:33:41.178Z,8.40
2023-04-08T23:36:08.974Z,8.30
2023-04-08T23:38:36.977Z,8.30
2023-04-08T23:41:07.323Z,8.40
2023-04-08T23:43:34.264Z,8.30
2023-04-08T23:46:00.866Z,8.30
2023-04-08T23:48:27.575Z,8.30
2023-04-08T23:50:55.125Z,8.30
2023-04-08T23:53:22.202Z,8.30
2023-04-08T23:55:48.858Z,8.30
2023-04-08T23:58:15.561Z,8.30
